Main page
METAR-TAF:

METAR-TAF

Airports :

RAF Marham

Marham, England

latitude: 52-39N, longitude: 000-34E, elevation: 23 m

Current weather observation

The report was made 51 minutes ago, at 19:50 UTC
Wind 5 kt from the East
Temperature 14°C
Humidity 63%
Pressure 1023 hPa
Visibility 10 km or more
no clouds below 1500 m and no cumulonimbus

METAR: EGYM 191950Z 10005KT CAVOK 14/07 Q1023 RMK BLU

Time: 21:41 (20:41 UTC)

Forecast

The report was made 7 hours and 7 minutes ago, at 13:34 UTC
Forecast valid from 19 at 15 UTC to 19 at 24 UTC
Wind 8 kt from the Northeast
Visibility 10 km or more
Few clouds at a height of 4000 ft

TAF: EGYM 191334Z 1915/1924 04008KT 9999 FEW040

Weather observations and forecasts of more than 4000 airports (METAR and TAF reports).

The available stations are represented by yellow and red dots on the map.

Hover mouse over dot to see the name of the station.

Then click to see weather observations and forecasts.

To change the map : click on the green buttons with a black cross to zoom in, on the green button with a dash to zoom out, or on the green arrows for adjacent maps.


METAR-TAF: